Time;durP1;ratioP1;P1;durP2;ratioP2;P2;SDS_P1;SDS_P2;PMS_P1;PMS_P2;Temp;Humidity;BMP_temperature;BMP_pressure;BME280_temperature;BME280_humidity;BME280_pressure;Samples;Min_cycle;Max_cycle;Signal;HPM_P1;HPM_P2
2020/12/11 00:00:03;;;;;;;1.90;1.80;;;10.80;81.10;;;;;;5025760;28;20120;-77
2020/12/11 00:02:34;;;;;;;2.35;2.00;;;10.80;81.10;;;;;;5025483;28;20135;-76
2020/12/11 00:05:02;;;;;;;2.13;1.80;;;10.80;81.20;;;;;;5025300;28;20088;-76
2020/12/11 00:07:29;;;;;;;1.85;1.38;;;10.80;81.20;;;;;;5020051;28;20026;-76
2020/12/11 00:09:55;;;;;;;3.33;1.63;;;10.80;81.10;;;;;;5007892;28;20038;-75
2020/12/11 00:12:21;;;;;;;1.50;1.40;;;10.80;81.10;;;;;;5006366;28;20596;-76
2020/12/11 00:14:47;;;;;;;1.45;1.35;;;10.90;81.30;;;;;;5016211;28;20120;-76
2020/12/11 00:17:13;;;;;;;1.80;1.67;;;10.80;81.10;;;;;;5026704;28;20061;-76
2020/12/11 00:19:39;;;;;;;1.60;1.50;;;10.80;81.10;;;;;;5027705;28;20057;-75
2020/12/11 00:22:05;;;;;;;2.88;1.42;;;10.90;81.20;;;;;;5028099;28;20045;-75
2020/12/11 00:24:31;;;;;;;1.92;1.52;;;10.90;81.20;;;;;;5028987;28;20095;-76
2020/12/11 00:26:57;;;;;;;3.65;1.60;;;10.90;81.20;;;;;;5028185;28;20393;-77
2020/12/11 00:29:23;;;;;;;2.55;1.58;;;10.90;81.20;;;;;;5027735;28;20091;-76
2020/12/11 00:31:49;;;;;;;1.80;1.50;;;10.80;81.00;;;;;;5025637;28;20155;-76
2020/12/11 00:34:15;;;;;;;1.55;1.45;;;10.90;81.20;;;;;;5024574;28;20026;-76
2020/12/11 00:36:41;;;;;;;1.80;1.65;;;10.90;81.20;;;;;;5009461;28;20030;-76
2020/12/11 00:39:06;;;;;;;4.20;1.55;;;10.90;81.20;;;;;;5018750;28;20029;-77
2020/12/11 00:41:32;;;;;;;1.63;1.33;;;10.90;81.20;;;;;;5027746;28;20441;-76
2020/12/11 00:43:58;;;;;;;2.03;1.58;;;10.90;81.20;;;;;;5029098;28;20029;-76
2020/12/11 00:46:26;;;;;;;2.75;1.40;;;10.80;81.00;;;;;;5029573;28;20053;-77
2020/12/11 00:48:53;;;;;;;2.17;1.58;;;10.90;81.20;;;;;;5028417;28;20040;-77
2020/12/11 00:51:20;;;;;;;1.58;1.40;;;10.80;81.00;;;;;;5029331;28;20228;-77
2020/12/11 00:53:47;;;;;;;2.83;1.60;;;10.90;81.20;;;;;;5027684;28;20250;-77
2020/12/11 00:56:15;;;;;;;1.92;1.42;;;10.90;81.20;;;;;;5028066;28;20037;-77
2020/12/11 00:58:41;;;;;;;2.30;1.55;;;10.90;81.20;;;;;;5028344;28;20473;-76
2020/12/11 01:01:07;;;;;;;1.35;1.20;;;10.90;81.20;;;;;;5027063;28;20026;-76
2020/12/11 01:03:33;;;;;;;1.90;1.38;;;10.90;81.20;;;;;;5028586;28;20072;-77
2020/12/11 01:05:59;;;;;;;4.05;1.75;;;10.90;81.20;;;;;;5028418;28;20071;-76
2020/12/11 01:08:25;;;;;;;2.88;1.50;;;10.90;81.20;;;;;;5027464;28;20041;-77
2020/12/11 01:10:51;;;;;;;1.60;1.33;;;10.90;81.20;;;;;;5027348;28;20118;-77
2020/12/11 01:13:17;;;;;;;2.35;1.40;;;10.90;81.10;;;;;;5028316;28;20186;-77
2020/12/11 01:15:43;;;;;;;1.40;1.30;;;10.90;81.10;;;;;;5028120;28;20033;-76
2020/12/11 01:18:08;;;;;;;2.40;1.30;;;10.90;81.10;;;;;;5028333;28;20041;-77
2020/12/11 01:20:34;;;;;;;2.38;1.63;;;10.90;81.10;;;;;;5028107;28;20115;-77
2020/12/11 01:23:00;;;;;;;2.00;1.30;;;10.80;80.90;;;;;;5028647;28;20362;-77
2020/12/11 01:25:26;;;;;;;2.65;1.92;;;10.80;80.90;;;;;;5043398;28;20033;-78
2020/12/11 01:27:52;;;;;;;2.25;1.75;;;10.80;80.90;;;;;;5027101;28;20037;-78
2020/12/11 01:30:18;;;;;;;3.72;1.77;;;10.80;80.90;;;;;;5044351;28;20025;-77
2020/12/11 01:32:44;;;;;;;2.80;1.73;;;10.70;80.70;;;;;;5028491;28;20047;-77
2020/12/11 01:35:10;;;;;;;2.00;1.50;;;10.70;80.70;;;;;;5028359;28;20056;-78
2020/12/11 01:37:36;;;;;;;3.28;1.48;;;10.70;80.80;;;;;;5028342;28;20316;-78
2020/12/11 01:40:03;;;;;;;1.50;1.40;;;10.70;80.80;;;;;;5027796;28;20029;-79
2020/12/11 01:42:29;;;;;;;4.65;1.77;;;10.60;80.70;;;;;;5026142;28;20033;-78
2020/12/11 01:44:55;;;;;;;4.75;1.80;;;10.60;80.70;;;;;;5027841;28;20377;-78
2020/12/11 01:47:21;;;;;;;1.85;1.48;;;10.60;80.80;;;;;;5009438;28;20411;-77
2020/12/11 01:49:48;;;;;;;1.83;1.40;;;10.60;80.80;;;;;;5027220;28;20045;-77
2020/12/11 01:52:15;;;;;;;2.10;1.65;;;10.50;80.70;;;;;;5027387;28;20128;-77
2020/12/11 01:54:42;;;;;;;1.77;1.52;;;10.50;80.70;;;;;;5027391;28;20037;-77
2020/12/11 01:57:40;;;;;;;3.88;2.00;;;10.50;80.70;;;;;;5025715;28;20061;-77
2020/12/11 02:00:08;;;;;;;1.98;1.40;;;10.50;80.80;;;;;;5025717;28;20025;-77
2020/12/11 02:02:38;;;;;;;1.58;1.40;;;10.50;81.30;;;;;;5025496;28;20037;-77
2020/12/11 02:05:10;;;;;;;4.32;1.70;;;10.50;80.80;;;;;;5027033;28;20047;-77
2020/12/11 02:07:40;;;;;;;2.33;1.58;;;10.50;80.80;;;;;;5025469;28;20030;-76
2020/12/11 02:10:07;;;;;;;1.77;1.65;;;10.50;80.80;;;;;;5025819;28;20044;-77
2020/12/11 02:12:34;;;;;;;2.28;1.50;;;10.50;80.80;;;;;;5025544;28;20540;-77
2020/12/11 02:15:00;;;;;;;2.50;1.38;;;10.50;80.80;;;;;;5026943;28;20183;-77
2020/12/11 02:17:28;;;;;;;1.83;1.42;;;10.50;80.90;;;;;;5026761;28;20412;-77
2020/12/11 02:19:55;;;;;;;2.20;1.60;;;10.50;80.90;;;;;;5008752;28;20032;-77
2020/12/11 02:22:21;;;;;;;2.55;1.30;;;10.50;80.80;;;;;;5025251;28;20041;-76
2020/12/11 02:24:52;;;;;;;4.18;2.15;;;10.50;80.80;;;;;;5025297;28;20030;-77
2020/12/11 02:27:18;;;;;;;6.82;1.50;;;10.50;80.80;;;;;;5025512;28;20048;-78
2020/12/11 02:29:44;;;;;;;3.50;1.67;;;10.50;80.80;;;;;;5024958;28;20041;-76
2020/12/11 02:32:14;;;;;;;5.80;1.73;;;10.50;80.80;;;;;;5026605;28;20032;-76
2020/12/11 02:34:41;;;;;;;3.70;1.50;;;10.50;80.80;;;;;;5024862;28;20109;-77
2020/12/11 02:37:07;;;;;;;3.38;1.90;;;10.50;80.80;;;;;;5008380;28;20123;-77
2020/12/11 02:39:33;;;;;;;4.72;1.88;;;10.50;80.80;;;;;;5008342;28;20048;-76
2020/12/11 02:41:59;;;;;;;3.47;1.73;;;10.50;80.80;;;;;;5026531;28;20076;-76
2020/12/11 02:44:25;;;;;;;4.70;1.80;;;10.40;80.60;;;;;;5026910;28;20029;-76
2020/12/11 02:46:51;;;;;;;4.57;2.10;;;10.50;80.80;;;;;;5020155;28;20504;-77
2020/12/11 02:49:17;;;;;;;4.05;1.48;;;10.40;80.60;;;;;;5008645;28;20064;-76
2020/12/11 02:51:43;;;;;;;3.42;1.63;;;10.40;80.60;;;;;;4992368;28;20030;-76
2020/12/11 02:54:09;;;;;;;4.78;1.63;;;10.40;80.60;;;;;;5010067;28;20034;-77
2020/12/11 02:56:35;;;;;;;2.35;1.40;;;10.40;80.60;;;;;;5010014;28;20080;-76
2020/12/11 02:59:01;;;;;;;5.15;1.80;;;10.40;80.60;;;;;;5008569;28;20045;-76
2020/12/11 03:01:27;;;;;;;2.35;1.55;;;10.30;80.40;;;;;;5009989;28;20053;-78
2020/12/11 03:03:55;;;;;;;2.03;1.65;;;10.30;80.40;;;;;;5008102;28;20033;-76
2020/12/11 03:06:40;;;;;;;8.30;2.33;;;10.30;80.50;;;;;;5009575;28;20026;-77
2020/12/11 03:09:06;;;;;;;4.00;2.10;;;10.30;80.50;;;;;;5025110;28;20053;-77
2020/12/11 03:11:32;;;;;;;4.45;1.50;;;10.30;80.50;;;;;;5024869;28;20032;-78
2020/12/11 03:13:58;;;;;;;3.78;1.58;;;10.20;80.30;;;;;;5009990;28;20122;-77
2020/12/11 03:16:24;;;;;;;3.33;1.50;;;10.20;80.30;;;;;;5009746;28;20037;-77
2020/12/11 03:18:50;;;;;;;3.65;1.85;;;10.20;80.40;;;;;;5024811;28;20373;-76
2020/12/11 03:21:16;;;;;;;6.00;1.70;;;10.20;80.40;;;;;;5009770;28;20291;-78
2020/12/11 03:23:42;;;;;;;4.43;1.92;;;10.10;80.20;;;;;;5009670;28;20137;-77
2020/12/11 03:26:08;;;;;;;3.38;1.73;;;10.10;80.20;;;;;;5009750;28;20026;-77
2020/12/11 03:28:34;;;;;;;2.28;1.75;;;10.10;80.20;;;;;;5024644;28;20116;-77
2020/12/11 03:31:00;;;;;;;4.00;1.90;;;10.00;80.10;;;;;;5024944;28;20057;-77
2020/12/11 03:33:27;;;;;;;6.00;2.03;;;10.00;80.10;;;;;;5009279;28;20033;-77
2020/12/11 03:35:54;;;;;;;5.63;1.85;;;9.90;80.00;;;;;;5024656;28;20045;-78
2020/12/11 03:38:20;;;;;;;2.97;1.30;;;9.90;80.00;;;;;;5009490;28;20508;-78
2020/12/11 03:40:46;;;;;;;4.40;2.33;;;9.90;80.10;;;;;;5009740;28;20026;-77
2020/12/11 03:43:12;;;;;;;2.60;1.70;;;9.90;80.10;;;;;;5008350;28;20038;-77
2020/12/11 03:45:38;;;;;;;4.15;1.80;;;9.80;80.50;;;;;;5009475;28;20434;-77
2020/12/11 03:48:04;;;;;;;4.13;1.80;;;9.80;80.00;;;;;;5024385;28;20090;-78
2020/12/11 03:50:30;;;;;;;3.92;2.13;;;9.70;79.90;;;;;;5009419;28;20092;-77
2020/12/11 03:52:56;;;;;;;2.20;1.65;;;9.70;79.90;;;;;;5028319;28;20036;-78
2020/12/11 03:55:21;;;;;;;4.30;1.73;;;9.70;79.90;;;;;;5013518;28;20381;-77
2020/12/11 03:57:47;;;;;;;3.45;1.90;;;9.70;80.00;;;;;;5013285;28;20462;-77
2020/12/11 04:00:13;;;;;;;4.05;2.08;;;9.60;79.80;;;;;;4995439;28;20113;-75
2020/12/11 04:02:39;;;;;;;5.95;2.17;;;9.60;79.80;;;;;;4995564;28;20068;-77
2020/12/11 04:05:06;;;;;;;2.78;1.40;;;9.60;79.80;;;;;;5011571;28;20080;-77
2020/12/11 04:07:32;;;;;;;2.90;1.85;;;9.50;79.70;;;;;;5012796;28;20029;-77
2020/12/11 04:09:59;;;;;;;4.80;2.10;;;9.50;79.70;;;;;;5028057;28;20398;-78
2020/12/11 04:12:25;;;;;;;3.75;1.92;;;9.50;79.70;;;;;;5028076;28;20091;-79
2020/12/11 04:14:51;;;;;;;2.78;1.80;;;9.40;79.50;;;;;;5011111;28;20036;-78
2020/12/11 04:17:17;;;;;;;4.18;1.50;;;9.50;79.70;;;;;;5012823;28;20505;-77
2020/12/11 04:19:42;;;;;;;4.45;2.10;;;9.40;79.60;;;;;;5012660;28;20029;-76
2020/12/11 04:22:08;;;;;;;3.65;2.00;;;9.40;79.60;;;;;;5028140;28;20113;-75
2020/12/11 04:24:34;;;;;;;3.45;2.00;;;9.30;79.50;;;;;;5012773;28;20489;-77
2020/12/11 04:27:00;;;;;;;6.40;2.58;;;9.30;79.50;;;;;;5012656;28;20037;-77
2020/12/11 04:29:26;;;;;;;3.38;2.17;;;9.20;79.40;;;;;;5027918;28;20374;-76
2020/12/11 04:31:56;;;;;;;3.38;2.35;;;9.20;79.40;;;;;;5012710;28;20033;-76
2020/12/11 04:34:23;;;;;;;2.55;2.00;;;9.20;79.40;;;;;;5011223;28;20430;-76
2020/12/11 04:36:53;;;;;;;6.90;2.38;;;9.20;79.50;;;;;;5012056;28;20033;-75
2020/12/11 04:39:20;;;;;;;5.15;2.00;;;9.10;79.30;;;;;;5013112;28;20034;-77
2020/12/11 04:41:46;;;;;;;5.10;1.90;;;9.10;79.30;;;;;;5012260;28;20041;-77
2020/12/11 04:44:12;;;;;;;4.07;1.83;;;9.10;79.40;;;;;;5012738;28;20034;-76
2020/12/11 04:46:39;;;;;;;5.63;2.75;;;9.00;79.20;;;;;;5027582;28;20050;-76
2020/12/11 04:49:06;;;;;;;4.07;1.63;;;9.00;79.30;;;;;;5011796;28;20041;-76
2020/12/11 04:51:33;;;;;;;4.78;2.35;;;9.00;79.30;;;;;;5027688;28;20116;-77
2020/12/11 04:54:01;;;;;;;4.15;2.00;;;8.90;79.70;;;;;;5012280;28;20040;-76
2020/12/11 04:56:29;;;;;;;5.45;2.25;;;8.90;79.30;;;;;;5012054;28;20026;-78
2020/12/11 04:58:56;;;;;;;4.28;2.55;;;8.90;79.30;;;;;;5027303;28;20030;-77
2020/12/11 05:01:32;;;;;;;4.00;1.92;;;8.90;79.40;;;;;;5012542;28;20056;-76
2020/12/11 05:04:01;;;;;;;3.65;2.15;;;8.90;79.40;;;;;;5011587;28;20491;-76
2020/12/11 05:06:27;;;;;;;4.90;2.13;;;8.90;79.40;;;;;;5027003;28;20030;-76
2020/12/11 05:09:13;;;;;;;4.20;2.20;;;8.90;79.40;;;;;;5026643;28;20292;-76
2020/12/11 05:11:42;;;;;;;5.00;2.47;;;8.90;79.50;;;;;;5011650;28;20481;-77
2020/12/11 05:14:30;;;;;;;6.15;2.92;;;8.90;79.40;;;;;;5011946;28;20041;-76
2020/12/11 05:17:05;;;;;;;3.15;2.00;;;8.90;79.50;;;;;;5010363;28;20103;-77
2020/12/11 05:19:33;;;;;;;4.07;2.38;;;9.00;79.60;;;;;;5027237;28;20038;-76
2020/12/11 05:22:12;;;;;;;7.50;1.98;;;8.90;79.50;;;;;;5010147;28;20022;-76
2020/12/11 05:24:49;;;;;;;6.28;2.60;;;8.90;79.50;;;;;;5010697;28;20161;-75
2020/12/11 05:27:34;;;;;;;5.95;3.17;;;9.00;79.70;;;;;;5026863;28;20062;-76
2020/12/11 05:30:09;;;;;;;4.03;1.98;;;8.90;79.50;;;;;;5009978;28;20033;-76
2020/12/11 05:32:39;;;;;;;4.88;2.58;;;8.90;79.50;;;;;;5010525;28;20119;-76
2020/12/11 05:35:26;;;;;;;6.82;2.45;;;9.00;79.70;;;;;;5011548;28;20041;-76
2020/12/11 05:37:57;;;;;;;5.38;2.35;;;9.00;79.70;;;;;;5009363;28;20121;-77
2020/12/11 05:40:34;;;;;;;5.28;2.42;;;9.00;79.70;;;;;;5011381;28;20473;-75
2020/12/11 05:43:22;;;;;;;5.53;2.55;;;9.00;79.80;;;;;;5011428;28;20106;-76
2020/12/11 05:45:58;;;;;;;6.50;2.60;;;9.10;80.00;;;;;;5010067;28;20091;-75
2020/12/11 05:48:35;;;;;;;9.57;2.63;;;9.00;79.70;;;;;;5023048;28;20044;-76
2020/12/11 05:51:12;;;;;;;6.43;2.38;;;9.10;79.90;;;;;;5014038;28;20066;-75
2020/12/11 05:53:39;;;;;;;7.00;2.60;;;9.10;79.90;;;;;;5026074;28;20464;-75
2020/12/11 05:56:05;;;;;;;5.68;2.72;;;9.10;79.90;;;;;;5030288;28;20033;-75
2020/12/11 05:58:33;;;;;;;5.03;2.42;;;9.10;79.90;;;;;;5006589;28;20064;-75
2020/12/11 06:00:59;;;;;;;7.25;2.42;;;9.10;79.90;;;;;;5025619;28;20125;-75
2020/12/11 06:03:27;;;;;;;5.00;2.58;;;9.10;79.90;;;;;;5025387;28;20492;-74
2020/12/11 06:05:57;;;;;;;5.10;2.38;;;9.10;80.00;;;;;;5017257;28;20017;-75
2020/12/11 06:08:28;;;;;;;7.18;2.70;;;9.20;80.10;;;;;;5024435;28;20556;-75
2020/12/11 06:10:54;;;;;;;5.88;3.00;;;9.20;80.10;;;;;;5005346;28;20725;-75
2020/12/11 06:13:41;;;;;;;8.30;2.83;;;9.20;80.10;;;;;;5021345;28;20030;-74
2020/12/11 06:16:10;;;;;;;8.70;3.45;;;9.20;80.10;;;;;;5020059;28;20136;-74
2020/12/11 06:18:38;;;;;;;6.88;3.08;;;9.20;80.00;;;;;;5007392;28;20473;-75
2020/12/11 06:21:05;;;;;;;9.13;2.85;;;9.20;80.00;;;;;;5005019;28;20366;-74
2020/12/11 06:23:32;;;;;;;8.93;2.90;;;9.30;80.10;;;;;;5018787;28;20061;-76
2020/12/11 06:26:02;;;;;;;8.20;3.03;;;9.30;80.10;;;;;;5015668;28;20422;-75
2020/12/11 06:28:41;;;;;;;9.18;3.00;;;9.30;80.10;;;;;;5007425;28;20033;-75
2020/12/11 06:31:08;;;;;;;9.85;2.85;;;9.30;80.10;;;;;;5024409;28;20038;-78
2020/12/11 06:33:36;;;;;;;9.40;3.30;;;9.30;80.10;;;;;;4993240;28;20030;-76
2020/12/11 06:36:04;;;;;;;9.65;3.55;;;9.30;80.10;;;;;;5000885;28;20425;-75
2020/12/11 06:38:44;;;;;;;8.93;3.25;;;9.30;80.10;;;;;;5012097;28;20037;-76
2020/12/11 06:41:12;;;;;;;8.48;3.33;;;9.30;80.10;;;;;;5010205;28;20096;-76
2020/12/11 06:43:45;;;;;;;9.75;3.13;;;9.30;80.10;;;;;;5020143;28;20248;-76
2020/12/11 06:46:18;;;;;;;8.68;4.25;;;9.30;80.10;;;;;;4993574;28;20034;-76
2020/12/11 06:49:22;;;;;;;10.40;3.45;;;9.30;80.20;;;;;;5002459;28;20042;-76
2020/12/11 06:51:48;;;;;;;11.87;4.17;;;9.30;80.30;;;;;;5013428;28;20398;-76
2020/12/11 06:54:19;;;;;;;9.00;3.95;;;9.40;80.50;;;;;;5013969;28;20053;-77
2020/12/11 06:56:50;;;;;;;10.57;3.75;;;9.40;80.50;;;;;;5025346;28;20041;-75
2020/12/11 06:59:29;;;;;;;6.88;3.65;;;9.30;80.30;;;;;;5025444;28;20121;-76
2020/12/11 07:01:56;;;;;;;13.88;3.80;;;9.40;80.60;;;;;;5024351;28;20041;-77
2020/12/11 07:04:23;;;;;;;10.10;3.58;;;9.40;80.60;;;;;;5024518;28;20049;-76
2020/12/11 07:06:50;;;;;;;10.15;3.40;;;9.40;80.60;;;;;;5021939;28;20029;-78
2020/12/11 07:09:17;;;;;;;14.50;4.43;;;9.40;80.60;;;;;;5021186;28;20252;-77
2020/12/11 07:11:44;;;;;;;6.78;3.25;;;9.40;80.70;;;;;;5021455;28;20218;-77
2020/12/11 07:14:10;;;;;;;10.27;3.78;;;9.40;80.70;;;;;;5017866;28;20164;-77
2020/12/11 07:16:44;;;;;;;10.10;3.55;;;9.40;80.70;;;;;;5019496;28;20045;-75
2020/12/11 07:19:10;;;;;;;11.07;4.22;;;9.40;80.70;;;;;;5022860;28;20037;-76
2020/12/11 07:21:38;;;;;;;9.32;3.30;;;9.50;80.80;;;;;;5006864;28;20017;-76
2020/12/11 07:24:05;;;;;;;13.65;3.78;;;9.50;80.80;;;;;;5023862;28;20095;-77
2020/12/11 07:26:31;;;;;;;11.13;3.85;;;9.50;80.80;;;;;;5027139;28;20029;-77
2020/12/11 07:29:06;;;;;;;13.38;3.60;;;9.50;80.80;;;;;;5025846;28;20550;-78
2020/12/11 07:31:44;;;;;;;9.85;3.22;;;9.50;80.80;;;;;;5029116;28;20314;-78
2020/12/11 07:34:14;;;;;;;14.93;4.43;;;9.50;80.80;;;;;;5030396;28;20026;-77
2020/12/11 07:36:41;;;;;;;9.40;4.05;;;9.60;80.90;;;;;;5029694;28;20034;-77
2020/12/11 07:39:17;;;;;;;10.02;4.15;;;9.50;80.70;;;;;;5030021;28;20445;-76
2020/12/11 07:41:47;;;;;;;9.55;4.35;;;9.50;80.70;;;;;;5022331;28;20036;-77
2020/12/11 07:44:32;;;;;;;11.57;4.13;;;9.50;80.70;;;;;;4996682;28;20511;-77
2020/12/11 07:47:07;;;;;;;9.13;3.85;;;9.50;80.80;;;;;;5027727;28;20091;-73
2020/12/11 07:49:37;;;;;;;13.30;3.92;;;9.50;80.70;;;;;;5026171;28;20492;-74
2020/12/11 07:52:04;;;;;;;13.15;3.95;;;9.50;80.80;;;;;;5026720;28;20512;-73
2020/12/11 07:54:36;;;;;;;7.93;3.22;;;9.50;80.80;;;;;;5028051;28;20152;-73
2020/12/11 07:57:13;;;;;;;7.63;2.80;;;9.50;80.80;;;;;;5027688;28;20079;-73
2020/12/11 07:59:40;;;;;;;9.55;3.50;;;9.50;80.80;;;;;;5027365;28;20033;-73
2020/12/11 08:02:06;;;;;;;11.88;4.38;;;9.50;80.80;;;;;;5027913;28;20129;-73
2020/12/11 08:04:36;;;;;;;13.40;4.18;;;9.50;80.90;;;;;;5027834;28;20044;-75
2020/12/11 08:07:03;;;;;;;10.90;3.83;;;9.50;80.90;;;;;;5026480;28;20037;-73
2020/12/11 08:09:34;;;;;;;11.15;3.25;;;9.50;80.80;;;;;;5026537;28;20038;-74
2020/12/11 08:12:10;;;;;;;9.75;3.05;;;9.50;80.90;;;;;;5027182;28;20029;-74
2020/12/11 08:14:39;;;;;;;12.77;4.32;;;9.50;80.90;;;;;;5027851;28;20037;-74
2020/12/11 08:17:08;;;;;;;10.45;3.55;;;9.50;80.90;;;;;;5026461;28;20029;-72
2020/12/11 08:19:34;;;;;;;9.90;3.63;;;9.50;80.90;;;;;;5027990;28;20026;-72
2020/12/11 08:22:14;;;;;;;16.30;4.15;;;9.50;80.80;;;;;;5027468;28;20079;-73
2020/12/11 08:24:40;;;;;;;12.48;4.40;;;9.50;80.80;;;;;;5026315;28;20029;-74
2020/12/11 08:27:06;;;;;;;7.97;3.42;;;9.50;80.80;;;;;;5025920;28;20029;-73
2020/12/11 08:29:32;;;;;;;8.80;3.83;;;9.50;80.80;;;;;;5010081;28;20720;-73
2020/12/11 08:31:58;;;;;;;11.30;4.18;;;9.50;80.80;;;;;;5025525;28;20120;-73
2020/12/11 08:34:29;;;;;;;9.68;3.88;;;9.50;80.80;;;;;;5027511;28;20029;-73
2020/12/11 08:37:03;;;;;;;9.68;3.75;;;9.50;80.80;;;;;;5025770;28;20029;-73
2020/12/11 08:39:29;;;;;;;;;;;9.50;80.90;;;;;;5026627;28;20033;-73
2020/12/11 08:49:41;;;;;;;13.80;4.20;;;9.50;80.80;;;;;;5027071;28;20049;-72
2020/12/11 08:52:08;;;;;;;10.02;4.13;;;9.50;80.90;;;;;;5028399;28;20500;-72
2020/12/11 08:54:34;;;;;;;12.63;4.53;;;9.50;80.90;;;;;;5028308;28;20029;-71
2020/12/11 08:57:00;;;;;;;10.75;3.25;;;9.60;81.10;;;;;;5026713;28;20029;-73
2020/12/11 08:59:26;;;;;;;10.82;3.80;;;9.60;81.10;;;;;;5027883;28;20036;-73
2020/12/11 09:01:52;;;;;;;16.10;5.00;;;9.60;81.20;;;;;;5010432;28;20098;-73
2020/12/11 09:04:18;;;;;;;12.65;4.18;;;9.60;81.20;;;;;;5026589;28;20033;-72
2020/12/11 09:06:44;;;;;;;11.27;3.67;;;9.60;81.20;;;;;;5016251;28;20018;-74
2020/12/11 09:09:10;;;;;;;9.43;4.65;;;9.70;81.30;;;;;;5025996;28;20056;-73
2020/12/11 09:11:37;;;;;;;8.10;4.03;;;9.70;81.40;;;;;;5026678;28;20029;-74
2020/12/11 09:14:03;;;;;;;15.30;4.55;;;9.70;81.50;;;;;;5028013;28;20071;-73
2020/12/11 09:16:29;;;;;;;8.65;3.90;;;9.80;81.70;;;;;;5010050;28;20022;-74
2020/12/11 09:18:55;;;;;;;18.67;4.28;;;9.80;81.70;;;;;;5027484;28;20453;-74
2020/12/11 09:21:21;;;;;;;13.38;4.47;;;9.90;81.80;;;;;;5028039;28;20030;-75
2020/12/11 09:23:47;;;;;;;8.10;4.22;;;9.90;81.80;;;;;;5025834;28;20067;-75
2020/12/11 09:26:13;;;;;;;13.90;4.43;;;10.00;81.90;;;;;;5026113;28;20061;-74
2020/12/11 09:28:42;;;;;;;13.43;5.10;;;10.00;81.90;;;;;;5026151;28;20044;-74
2020/12/11 09:31:08;;;;;;;16.58;5.10;;;10.00;81.80;;;;;;5026220;28;20433;-74
2020/12/11 09:33:39;;;;;;;9.15;4.18;;;10.10;82.10;;;;;;5026278;28;20036;-74
2020/12/11 09:36:05;;;;;;;13.45;5.30;;;10.10;82.30;;;;;;5026116;28;20041;-75
2020/12/11 09:38:31;;;;;;;14.32;4.13;;;10.20;82.50;;;;;;5009814;28;20175;-74
2020/12/11 09:41:04;;;;;;;14.05;5.50;;;10.20;82.50;;;;;;5027278;28;20064;-74
2020/12/11 09:49:31;;;;;;;14.80;5.00;;;10.30;82.50;;;;;;5026379;28;20203;-75
2020/12/11 09:56:39;;;;;;;11.30;5.13;;;10.30;82.40;;;;;;5025563;28;20056;-74
2020/12/11 09:59:19;;;;;;;15.40;4.28;;;10.30;82.40;;;;;;5026114;28;20106;-73
2020/12/11 10:04:23;;;;;;;16.77;3.95;;;10.30;82.40;;;;;;5025175;28;20446;-73
2020/12/11 10:06:49;;;;;;;12.70;4.28;;;10.30;82.40;;;;;;5026607;28;20108;-73
2020/12/11 10:09:15;;;;;;;12.30;4.13;;;10.40;82.60;;;;;;5008925;28;20354;-75
2020/12/11 10:11:41;;;;;;;21.45;4.45;;;10.40;82.60;;;;;;5026730;28;20075;-74
2020/12/11 10:16:40;;;;;;;10.07;3.85;;;10.40;82.70;;;;;;5025179;28;20493;-74
2020/12/11 10:19:06;;;;;;;12.73;4.72;;;10.40;82.60;;;;;;5026223;28;20083;-74
2020/12/11 10:21:32;;;;;;;14.13;5.00;;;10.40;82.60;;;;;;5025033;28;20037;-74
2020/12/11 10:23:58;;;;;;;14.68;4.22;;;10.50;82.80;;;;;;5026493;28;20053;-73
2020/12/11 10:26:24;;;;;;;13.95;3.53;;;10.50;82.80;;;;;;5027073;28;20477;-74
2020/12/11 10:28:50;;;;;;;17.20;5.30;;;10.50;82.80;;;;;;5008661;28;20386;-74
2020/12/11 10:31:16;;;;;;;13.02;3.50;;;10.60;83.00;;;;;;5025854;28;20052;-75
2020/12/11 10:33:42;;;;;;;13.20;4.25;;;10.60;83.00;;;;;;5025098;28;20095;-74
2020/12/11 10:36:08;;;;;;;9.70;3.88;;;10.70;83.10;;;;;;5008144;28;20465;-74
2020/12/11 10:38:34;;;;;;;11.70;4.60;;;10.80;83.20;;;;;;5026628;28;20022;-74
2020/12/11 10:41:00;;;;;;;13.02;4.22;;;10.80;83.10;;;;;;5026863;28;20082;-75
2020/12/11 10:43:26;;;;;;;12.23;4.53;;;10.80;83.00;;;;;;5024511;28;20392;-74
2020/12/11 10:45:52;;;;;;;10.93;3.50;;;10.90;83.10;;;;;;5024476;28;20420;-75
2020/12/11 10:48:18;;;;;;;11.95;4.28;;;11.00;83.30;;;;;;5024583;28;20057;-76
2020/12/11 10:50:44;;;;;;;11.73;3.72;;;11.00;83.20;;;;;;5008508;28;20369;-74
2020/12/11 10:53:10;;;;;;;11.07;3.40;;;11.00;83.20;;;;;;5008647;28;20171;-75
2020/12/11 10:55:36;;;;;;;10.27;3.00;;;11.00;83.20;;;;;;5024641;28;20102;-75
2020/12/11 10:58:02;;;;;;;11.43;4.32;;;11.10;83.30;;;;;;5024317;28;20456;-75
2020/12/11 11:00:27;;;;;;;15.23;3.47;;;11.10;83.30;;;;;;5008048;28;20036;-74
2020/12/11 11:02:53;;;;;;;9.63;3.67;;;11.10;83.30;;;;;;5024641;28;20029;-77
2020/12/11 11:05:19;;;;;;;15.60;4.93;;;11.10;83.20;;;;;;5025795;28;20374;-76
2020/12/11 11:07:45;;;;;;;11.05;3.63;;;11.10;83.20;;;;;;5008094;28;20030;-76
2020/12/11 11:12:49;;;;;;;9.80;4.38;;;11.20;83.30;;;;;;5024690;28;20073;-74
2020/12/11 11:28:29;;;;;;;11.05;3.92;;;11.50;83.60;;;;;;5025433;28;20381;-75
2020/12/11 11:30:55;;;;;;;11.52;3.85;;;11.50;83.60;;;;;;5008051;28;20039;-75
2020/12/11 11:33:21;;;;;;;13.15;3.97;;;11.60;83.70;;;;;;5024168;28;20025;-75
2020/12/11 11:35:49;;;;;;;10.43;3.58;;;11.60;83.70;;;;;;5025803;28;20053;-76
2020/12/11 11:38:17;;;;;;;9.20;3.95;;;11.70;83.80;;;;;;5024284;28;20445;-76
2020/12/11 11:40:44;;;;;;;9.60;3.83;;;11.80;83.90;;;;;;5023745;28;20033;-75
2020/12/11 11:43:10;;;;;;;10.73;4.50;;;11.80;83.70;;;;;;5025447;28;20026;-75
2020/12/11 11:45:37;;;;;;;11.20;4.05;;;11.90;83.80;;;;;;5025467;28;20496;-75
2020/12/11 11:48:11;;;;;;;12.98;3.85;;;11.90;83.70;;;;;;5025733;28;20104;-74
2020/12/11 11:51:03;;;;;;;12.32;4.43;;;12.00;83.80;;;;;;5024206;28;20430;-74
2020/12/11 11:53:23;;;;;;;7.90;3.55;;;12.00;83.60;;;;;;5023739;28;20121;-74
2020/12/11 11:55:49;;;;;;;10.15;4.18;;;12.00;83.50;;;;;;5024283;28;20457;-74
2020/12/11 11:58:15;;;;;;;8.48;3.50;;;12.10;83.60;;;;;;5024102;28;20049;-75
2020/12/11 12:00:42;;;;;;;10.30;3.63;;;12.10;83.60;;;;;;5023916;28;20034;-74
2020/12/11 12:03:08;;;;;;;9.35;3.15;;;12.10;83.60;;;;;;5007347;28;20045;-74
2020/12/11 12:05:33;;;;;;;7.80;3.15;;;12.10;83.60;;;;;;5023686;28;20384;-73
2020/12/11 12:07:59;;;;;;;10.45;3.58;;;12.10;83.50;;;;;;5008042;28;20056;-73
2020/12/11 12:10:25;;;;;;;7.15;3.20;;;12.10;83.50;;;;;;5023960;28;20053;-72
2020/12/11 12:12:51;;;;;;;9.27;3.58;;;12.10;83.50;;;;;;5026912;28;20132;-75
2020/12/11 12:15:21;;;;;;;7.07;3.72;;;12.10;83.50;;;;;;5028674;28;20179;-73
2020/12/11 12:18:11;;;;;;;6.60;2.85;;;12.10;83.50;;;;;;5028021;28;20126;-74
2020/12/11 12:21:00;;;;;;;10.70;4.00;;;12.10;83.50;;;;;;5028876;28;20397;-73
2020/12/11 12:29:15;;;;;;;15.00;3.78;;;12.30;83.90;;;;;;5025762;28;20483;-75
2020/12/11 12:31:49;;;;;;;11.82;3.47;;;12.30;83.70;;;;;;5027651;28;20049;-75
2020/12/11 12:40:01;;;;;;;12.20;3.80;;;12.50;83.70;;;;;;5028713;28;20033;-75
2020/12/11 12:42:40;;;;;;;5.97;2.67;;;12.60;83.80;;;;;;5028647;28;20033;-74
2020/12/11 12:45:07;;;;;;;9.32;2.47;;;12.70;83.90;;;;;;5026613;28;20026;-75
2020/12/11 12:47:33;;;;;;;8.43;3.20;;;12.70;83.80;;;;;;5010323;28;20057;-75
2020/12/11 12:50:01;;;;;;;11.57;3.22;;;12.80;83.80;;;;;;5026580;28;20068;-76
2020/12/11 12:52:27;;;;;;;9.18;2.83;;;12.80;83.70;;;;;;5027307;28;20030;-74
2020/12/11 12:54:53;;;;;;;7.55;2.75;;;12.90;83.80;;;;;;5026775;28;20073;-74
2020/12/11 12:57:44;;;;;;;5.68;2.63;;;13.00;83.90;;;;;;5027169;28;20180;-76
2020/12/11 13:00:20;;;;;;;8.15;3.33;;;13.00;84.30;;;;;;5025287;28;20045;-75
2020/12/11 13:05:12;;;;;;;9.80;3.85;;;13.00;83.60;;;;;;5027635;28;20033;-74
2020/12/11 13:07:38;;;;;;;6.22;2.90;;;13.10;83.70;;;;;;5028420;28;20032;-74
2020/12/11 13:10:05;;;;;;;10.35;2.88;;;13.10;83.70;;;;;;5027057;28;20473;-75
2020/12/11 13:12:31;;;;;;;6.00;3.13;;;13.10;83.70;;;;;;5028736;28;20041;-76
2020/12/11 13:14:57;;;;;;;7.03;3.30;;;13.10;83.60;;;;;;5027761;28;20264;-75
2020/12/11 13:17:23;;;;;;;9.25;3.33;;;13.10;83.50;;;;;;5027289;28;20491;-75
2020/12/11 13:19:49;;;;;;;11.55;4.00;;;13.10;83.50;;;;;;5026532;28;20140;-74
2020/12/11 13:27:28;;;;;;;6.88;3.00;;;13.10;83.40;;;;;;5027912;28;20033;-75
2020/12/11 13:29:54;;;;;;;4.93;2.72;;;13.20;83.50;;;;;;5025982;28;20114;-75
2020/12/11 13:32:21;;;;;;;10.35;2.92;;;13.20;83.50;;;;;;5026213;28;20397;-75
2020/12/11 13:34:48;;;;;;;9.52;2.90;;;13.20;83.40;;;;;;5026329;28;20125;-75
2020/12/11 13:37:14;;;;;;;10.68;3.60;;;13.20;83.30;;;;;;5027462;28;20589;-74
2020/12/11 13:39:40;;;;;;;11.35;3.38;;;13.20;83.20;;;;;;5027421;28;20452;-75
2020/12/11 13:42:06;;;;;;;8.43;2.88;;;13.20;83.20;;;;;;5027714;28;20030;-75
2020/12/11 13:44:33;;;;;;;8.68;2.65;;;13.20;83.10;;;;;;5027215;28;20399;-74
2020/12/11 13:46:59;;;;;;;10.40;3.22;;;13.10;82.90;;;;;;5026094;28;20498;-74
2020/12/11 13:49:25;;;;;;;6.05;3.00;;;13.10;82.90;;;;;;5027160;28;20069;-75
2020/12/11 13:51:51;;;;;;;9.82;4.18;;;13.10;82.90;;;;;;5026852;28;20026;-74